Terminal Aerodrome Forecast
Issued by NWS Lake Charles, LA

Current Version | Previous Version | Text Only | Print | Product List | Glossary On
Versions: 1 2 3 4 5 6 7 8 9 10 11 12 13 14 15 16 17 18 19 20 21 22
000
FTUS44 KLCH 061723
TAFAEX
TAF
KAEX 061723Z 0618/0718 27006KT P6SM OVC012
      TEMPO 0618/0620 BKN009
     FM070300 VRB04KT P6SM OVC007=

USA.gov is the U.S. government's official web portal to all federal, state and local government web resources and services.